sensor_id;sensor_type;location;lat;lon;timestamp;P1;durP1;ratioP1;P2;durP2;ratioP2
8462;SDS011;4268;52.506;13.462;2023-02-28T00:00:19;5.00;;;4.17;;
8462;SDS011;4268;52.506;13.462;2023-02-28T00:02:45;4.20;;;3.80;;
8462;SDS011;4268;52.506;13.462;2023-02-28T00:05:12;4.77;;;4.20;;
8462;SDS011;4268;52.506;13.462;2023-02-28T00:07:39;5.10;;;4.60;;
8462;SDS011;4268;52.506;13.462;2023-02-28T00:10:07;4.57;;;4.17;;
8462;SDS011;4268;52.506;13.462;2023-02-28T00:12:35;5.00;;;4.50;;
8462;SDS011;4268;52.506;13.462;2023-02-28T00:15:02;4.60;;;4.20;;
8462;SDS011;4268;52.506;13.462;2023-02-28T00:17:35;5.87;;;4.57;;
8462;SDS011;4268;52.506;13.462;2023-02-28T00:20:01;5.37;;;4.57;;
8462;SDS011;4268;52.506;13.462;2023-02-28T00:22:29;4.90;;;4.50;;
8462;SDS011;4268;52.506;13.462;2023-02-28T00:24:54;4.47;;;4.07;;
8462;SDS011;4268;52.506;13.462;2023-02-28T00:27:20;4.60;;;4.20;;
8462;SDS011;4268;52.506;13.462;2023-02-28T00:29:46;4.70;;;4.20;;
8462;SDS011;4268;52.506;13.462;2023-02-28T00:32:11;6.27;;;4.70;;
8462;SDS011;4268;52.506;13.462;2023-02-28T00:34:37;5.30;;;4.50;;
8462;SDS011;4268;52.506;13.462;2023-02-28T00:37:06;5.40;;;4.70;;
8462;SDS011;4268;52.506;13.462;2023-02-28T00:39:34;5.73;;;4.50;;
8462;SDS011;4268;52.506;13.462;2023-02-28T00:42:00;5.20;;;4.53;;
8462;SDS011;4268;52.506;13.462;2023-02-28T00:44:26;4.77;;;4.37;;
8462;SDS011;4268;52.506;13.462;2023-02-28T00:46:52;5.17;;;4.60;;
8462;SDS011;4268;52.506;13.462;2023-02-28T00:49:19;6.00;;;4.77;;
8462;SDS011;4268;52.506;13.462;2023-02-28T00:51:45;6.33;;;5.07;;
8462;SDS011;4268;52.506;13.462;2023-02-28T00:54:11;6.43;;;4.50;;
8462;SDS011;4268;52.506;13.462;2023-02-28T00:56:36;4.70;;;4.30;;
8462;SDS011;4268;52.506;13.462;2023-02-28T00:59:02;5.23;;;4.60;;
8462;SDS011;4268;52.506;13.462;2023-02-28T01:01:27;5.90;;;4.90;;
8462;SDS011;4268;52.506;13.462;2023-02-28T01:03:53;7.53;;;4.80;;
8462;SDS011;4268;52.506;13.462;2023-02-28T01:06:18;5.50;;;5.00;;
8462;SDS011;4268;52.506;13.462;2023-02-28T01:08:44;7.23;;;5.10;;
8462;SDS011;4268;52.506;13.462;2023-02-28T01:11:10;5.30;;;4.80;;
8462;SDS011;4268;52.506;13.462;2023-02-28T01:13:37;5.63;;;4.87;;
8462;SDS011;4268;52.506;13.462;2023-02-28T01:16:02;5.43;;;4.90;;
8462;SDS011;4268;52.506;13.462;2023-02-28T01:18:28;6.23;;;4.87;;
8462;SDS011;4268;52.506;13.462;2023-02-28T01:20:54;6.20;;;5.13;;
8462;SDS011;4268;52.506;13.462;2023-02-28T01:23:20;5.80;;;5.20;;
8462;SDS011;4268;52.506;13.462;2023-02-28T01:25:48;5.40;;;4.90;;
8462;SDS011;4268;52.506;13.462;2023-02-28T01:28:14;5.33;;;4.70;;
8462;SDS011;4268;52.506;13.462;2023-02-28T01:30:40;5.53;;;5.03;;
8462;SDS011;4268;52.506;13.462;2023-02-28T01:33:05;6.10;;;5.13;;
8462;SDS011;4268;52.506;13.462;2023-02-28T01:35:35;5.57;;;4.87;;
8462;SDS011;4268;52.506;13.462;2023-02-28T01:38:01;6.43;;;5.00;;
8462;SDS011;4268;52.506;13.462;2023-02-28T01:40:27;5.67;;;5.13;;
8462;SDS011;4268;52.506;13.462;2023-02-28T01:42:52;5.60;;;5.10;;
8462;SDS011;4268;52.506;13.462;2023-02-28T01:47:46;6.50;;;5.80;;
8462;SDS011;4268;52.506;13.462;2023-02-28T01:50:19;5.77;;;5.17;;
8462;SDS011;4268;52.506;13.462;2023-02-28T01:52:47;6.00;;;5.50;;
8462;SDS011;4268;52.506;13.462;2023-02-28T01:55:15;5.50;;;4.90;;
8462;SDS011;4268;52.506;13.462;2023-02-28T01:57:45;6.53;;;5.80;;
8462;SDS011;4268;52.506;13.462;2023-02-28T02:00:17;6.27;;;5.63;;
8462;SDS011;4268;52.506;13.462;2023-02-28T02:02:46;7.07;;;5.50;;
8462;SDS011;4268;52.506;13.462;2023-02-28T02:05:15;6.40;;;5.47;;
8462;SDS011;4268;52.506;13.462;2023-02-28T02:07:50;8.47;;;5.90;;
8462;SDS011;4268;52.506;13.462;2023-02-28T02:10:20;5.87;;;5.27;;
8462;SDS011;4268;52.506;13.462;2023-02-28T02:13:07;5.83;;;5.20;;
8462;SDS011;4268;52.506;13.462;2023-02-28T02:19:08;5.63;;;5.07;;
8462;SDS011;4268;52.506;13.462;2023-02-28T02:22:07;6.10;;;5.50;;
8462;SDS011;4268;52.506;13.462;2023-02-28T02:27:48;7.17;;;5.97;;
8462;SDS011;4268;52.506;13.462;2023-02-28T02:30:58;6.50;;;5.23;;
8462;SDS011;4268;52.506;13.462;2023-02-28T02:36:51;6.77;;;5.60;;
8462;SDS011;4268;52.506;13.462;2023-02-28T02:42:04;7.60;;;5.60;;
8462;SDS011;4268;52.506;13.462;2023-02-28T02:44:43;6.20;;;5.60;;
8462;SDS011;4268;52.506;13.462;2023-02-28T02:47:16;6.73;;;6.03;;
8462;SDS011;4268;52.506;13.462;2023-02-28T02:49:55;6.13;;;5.53;;
8462;SDS011;4268;52.506;13.462;2023-02-28T02:52:24;6.83;;;5.87;;
8462;SDS011;4268;52.506;13.462;2023-02-28T02:54:57;6.13;;;5.57;;
8462;SDS011;4268;52.506;13.462;2023-02-28T02:57:30;6.23;;;5.63;;
8462;SDS011;4268;52.506;13.462;2023-02-28T03:00:00;8.17;;;6.43;;
8462;SDS011;4268;52.506;13.462;2023-02-28T03:02:29;6.90;;;6.20;;
8462;SDS011;4268;52.506;13.462;2023-02-28T03:04:59;6.60;;;6.00;;
8462;SDS011;4268;52.506;13.462;2023-02-28T03:07:29;6.83;;;6.13;;
8462;SDS011;4268;52.506;13.462;2023-02-28T03:09:55;6.10;;;5.50;;
8462;SDS011;4268;52.506;13.462;2023-02-28T03:12:23;6.67;;;5.83;;
8462;SDS011;4268;52.506;13.462;2023-02-28T03:15:09;6.53;;;5.93;;
8462;SDS011;4268;52.506;13.462;2023-02-28T03:18:08;6.30;;;5.70;;
8462;SDS011;4268;52.506;13.462;2023-02-28T03:20:41;6.77;;;6.17;;
8462;SDS011;4268;52.506;13.462;2023-02-28T03:23:19;6.53;;;5.93;;
8462;SDS011;4268;52.506;13.462;2023-02-28T03:25:53;6.63;;;6.00;;
8462;SDS011;4268;52.506;13.462;2023-02-28T03:28:32;6.60;;;5.77;;
8462;SDS011;4268;52.506;13.462;2023-02-28T03:31:30;5.80;;;5.30;;
8462;SDS011;4268;52.506;13.462;2023-02-28T03:34:04;6.40;;;5.80;;
8462;SDS011;4268;52.506;13.462;2023-02-28T03:36:38;5.97;;;5.43;;
8462;SDS011;4268;52.506;13.462;2023-02-28T03:39:09;6.33;;;5.70;;
8462;SDS011;4268;52.506;13.462;2023-02-28T03:41:57;6.57;;;5.93;;
8462;SDS011;4268;52.506;13.462;2023-02-28T03:44:29;7.33;;;6.60;;
8462;SDS011;4268;52.506;13.462;2023-02-28T03:47:03;8.33;;;6.30;;
8462;SDS011;4268;52.506;13.462;2023-02-28T03:49:40;7.67;;;6.30;;
8462;SDS011;4268;52.506;13.462;2023-02-28T03:52:17;6.43;;;5.50;;
8462;SDS011;4268;52.506;13.462;2023-02-28T03:54:45;7.37;;;6.30;;
8462;SDS011;4268;52.506;13.462;2023-02-28T03:57:22;6.73;;;6.10;;
8462;SDS011;4268;52.506;13.462;2023-02-28T04:00:12;7.37;;;6.40;;
8462;SDS011;4268;52.506;13.462;2023-02-28T04:02:43;6.40;;;5.80;;
8462;SDS011;4268;52.506;13.462;2023-02-28T04:05:09;6.20;;;5.70;;
8462;SDS011;4268;52.506;13.462;2023-02-28T04:07:35;7.23;;;5.73;;
8462;SDS011;4268;52.506;13.462;2023-02-28T04:10:01;6.30;;;5.70;;
8462;SDS011;4268;52.506;13.462;2023-02-28T04:12:26;6.40;;;5.80;;
8462;SDS011;4268;52.506;13.462;2023-02-28T04:14:52;6.40;;;5.80;;
8462;SDS011;4268;52.506;13.462;2023-02-28T04:17:17;6.70;;;6.00;;
8462;SDS011;4268;52.506;13.462;2023-02-28T04:19:43;7.10;;;6.03;;
8462;SDS011;4268;52.506;13.462;2023-02-28T04:22:09;6.60;;;5.87;;
8462;SDS011;4268;52.506;13.462;2023-02-28T04:24:35;6.83;;;6.13;;
8462;SDS011;4268;52.506;13.462;2023-02-28T04:27:02;7.00;;;6.30;;
8462;SDS011;4268;52.506;13.462;2023-02-28T04:29:28;6.97;;;6.27;;
8462;SDS011;4268;52.506;13.462;2023-02-28T04:31:57;6.97;;;6.20;;
8462;SDS011;4268;52.506;13.462;2023-02-28T04:34:24;7.70;;;6.47;;
8462;SDS011;4268;52.506;13.462;2023-02-28T04:36:50;7.40;;;6.60;;
8462;SDS011;4268;52.506;13.462;2023-02-28T04:39:19;8.93;;;7.10;;
8462;SDS011;4268;52.506;13.462;2023-02-28T04:41:45;7.43;;;6.00;;
8462;SDS011;4268;52.506;13.462;2023-02-28T04:44:11;7.03;;;6.33;;
8462;SDS011;4268;52.506;13.462;2023-02-28T04:46:37;8.03;;;7.00;;
8462;SDS011;4268;52.506;13.462;2023-02-28T04:49:03;7.80;;;7.00;;
8462;SDS011;4268;52.506;13.462;2023-02-28T04:51:28;7.97;;;7.07;;
8462;SDS011;4268;52.506;13.462;2023-02-28T04:53:54;8.47;;;7.37;;
8462;SDS011;4268;52.506;13.462;2023-02-28T04:56:20;9.87;;;7.10;;
8462;SDS011;4268;52.506;13.462;2023-02-28T04:58:46;9.60;;;7.27;;
8462;SDS011;4268;52.506;13.462;2023-02-28T05:01:17;9.57;;;7.47;;
8462;SDS011;4268;52.506;13.462;2023-02-28T05:03:48;10.83;;;7.10;;
8462;SDS011;4268;52.506;13.462;2023-02-28T05:06:15;10.87;;;7.40;;
8462;SDS011;4268;52.506;13.462;2023-02-28T05:08:41;9.37;;;6.93;;
8462;SDS011;4268;52.506;13.462;2023-02-28T05:11:08;7.70;;;6.90;;
8462;SDS011;4268;52.506;13.462;2023-02-28T05:13:48;8.23;;;7.00;;
8462;SDS011;4268;52.506;13.462;2023-02-28T05:16:14;8.43;;;7.47;;
8462;SDS011;4268;52.506;13.462;2023-02-28T05:18:40;8.53;;;7.57;;
8462;SDS011;4268;52.506;13.462;2023-02-28T05:21:12;8.80;;;7.20;;
8462;SDS011;4268;52.506;13.462;2023-02-28T05:23:45;7.80;;;7.00;;
8462;SDS011;4268;52.506;13.462;2023-02-28T05:26:11;8.50;;;6.63;;
8462;SDS011;4268;52.506;13.462;2023-02-28T05:28:36;8.37;;;7.03;;
8462;SDS011;4268;52.506;13.462;2023-02-28T05:31:02;8.50;;;7.30;;
8462;SDS011;4268;52.506;13.462;2023-02-28T05:33:27;9.43;;;7.57;;
8462;SDS011;4268;52.506;13.462;2023-02-28T05:35:53;9.93;;;7.77;;
8462;SDS011;4268;52.506;13.462;2023-02-28T05:38:18;8.53;;;7.07;;
8462;SDS011;4268;52.506;13.462;2023-02-28T05:40:44;7.57;;;6.83;;
8462;SDS011;4268;52.506;13.462;2023-02-28T05:43:10;9.30;;;7.60;;
8462;SDS011;4268;52.506;13.462;2023-02-28T05:45:36;10.27;;;7.37;;
8462;SDS011;4268;52.506;13.462;2023-02-28T05:48:02;9.27;;;7.37;;
8462;SDS011;4268;52.506;13.462;2023-02-28T05:50:27;9.23;;;7.53;;
8462;SDS011;4268;52.506;13.462;2023-02-28T05:52:53;9.30;;;7.30;;
8462;SDS011;4268;52.506;13.462;2023-02-28T05:55:18;9.53;;;7.13;;
8462;SDS011;4268;52.506;13.462;2023-02-28T05:57:44;8.50;;;7.27;;
8462;SDS011;4268;52.506;13.462;2023-02-28T06:00:10;9.30;;;7.13;;
8462;SDS011;4268;52.506;13.462;2023-02-28T06:02:38;11.73;;;7.33;;
8462;SDS011;4268;52.506;13.462;2023-02-28T06:05:04;12.23;;;7.93;;
8462;SDS011;4268;52.506;13.462;2023-02-28T06:07:29;8.20;;;7.13;;
8462;SDS011;4268;52.506;13.462;2023-02-28T06:09:55;11.67;;;8.13;;
8462;SDS011;4268;52.506;13.462;2023-02-28T06:12:20;9.37;;;7.10;;
8462;SDS011;4268;52.506;13.462;2023-02-28T06:14:46;9.03;;;7.50;;
8462;SDS011;4268;52.506;13.462;2023-02-28T06:17:11;8.87;;;7.20;;
8462;SDS011;4268;52.506;13.462;2023-02-28T06:19:37;9.63;;;7.20;;
8462;SDS011;4268;52.506;13.462;2023-02-28T06:22:06;10.23;;;7.90;;
8462;SDS011;4268;52.506;13.462;2023-02-28T06:24:32;8.03;;;7.23;;
8462;SDS011;4268;52.506;13.462;2023-02-28T06:26:57;9.57;;;7.60;;
8462;SDS011;4268;52.506;13.462;2023-02-28T06:29:29;14.30;;;8.00;;
8462;SDS011;4268;52.506;13.462;2023-02-28T06:31:56;9.97;;;7.70;;
8462;SDS011;4268;52.506;13.462;2023-02-28T06:34:22;10.40;;;8.13;;
8462;SDS011;4268;52.506;13.462;2023-02-28T06:36:49;12.03;;;8.87;;
8462;SDS011;4268;52.506;13.462;2023-02-28T06:39:15;11.77;;;8.07;;
8462;SDS011;4268;52.506;13.462;2023-02-28T06:41:41;11.43;;;8.20;;
8462;SDS011;4268;52.506;13.462;2023-02-28T06:44:13;10.90;;;8.30;;
8462;SDS011;4268;52.506;13.462;2023-02-28T06:46:41;11.17;;;9.53;;
8462;SDS011;4268;52.506;13.462;2023-02-28T06:49:08;10.03;;;8.90;;
8462;SDS011;4268;52.506;13.462;2023-02-28T06:51:35;11.57;;;8.60;;
8462;SDS011;4268;52.506;13.462;2023-02-28T06:54:02;12.83;;;8.83;;
8462;SDS011;4268;52.506;13.462;2023-02-28T06:56:28;14.43;;;8.80;;
8462;SDS011;4268;52.506;13.462;2023-02-28T06:58:53;11.17;;;8.90;;
8462;SDS011;4268;52.506;13.462;2023-02-28T07:01:19;11.33;;;9.57;;
8462;SDS011;4268;52.506;13.462;2023-02-28T07:03:45;10.47;;;8.27;;
8462;SDS011;4268;52.506;13.462;2023-02-28T07:06:11;11.57;;;7.83;;
8462;SDS011;4268;52.506;13.462;2023-02-28T07:08:37;12.33;;;8.40;;
8462;SDS011;4268;52.506;13.462;2023-02-28T07:11:05;12.40;;;8.03;;
8462;SDS011;4268;52.506;13.462;2023-02-28T07:13:30;13.37;;;8.73;;
8462;SDS011;4268;52.506;13.462;2023-02-28T07:16:00;13.13;;;7.50;;
8462;SDS011;4268;52.506;13.462;2023-02-28T07:18:27;10.77;;;8.40;;
8462;SDS011;4268;52.506;13.462;2023-02-28T07:20:53;11.43;;;8.70;;
8462;SDS011;4268;52.506;13.462;2023-02-28T07:23:19;13.50;;;8.17;;
8462;SDS011;4268;52.506;13.462;2023-02-28T07:25:44;11.63;;;8.10;;
8462;SDS011;4268;52.506;13.462;2023-02-28T07:28:10;8.93;;;8.03;;
8462;SDS011;4268;52.506;13.462;2023-02-28T07:30:36;10.60;;;8.13;;
8462;SDS011;4268;52.506;13.462;2023-02-28T07:33:02;10.67;;;8.40;;
8462;SDS011;4268;52.506;13.462;2023-02-28T07:35:28;11.57;;;7.97;;
8462;SDS011;4268;52.506;13.462;2023-02-28T07:37:54;13.27;;;8.30;;
8462;SDS011;4268;52.506;13.462;2023-02-28T07:40:20;11.97;;;8.33;;
8462;SDS011;4268;52.506;13.462;2023-02-28T07:42:46;9.70;;;8.67;;
8462;SDS011;4268;52.506;13.462;2023-02-28T07:45:11;8.83;;;7.90;;
8462;SDS011;4268;52.506;13.462;2023-02-28T07:47:38;13.93;;;8.00;;
8462;SDS011;4268;52.506;13.462;2023-02-28T07:50:04;13.03;;;7.77;;
8462;SDS011;4268;52.506;13.462;2023-02-28T07:52:31;7.20;;;6.10;;
8462;SDS011;4268;52.506;13.462;2023-02-28T07:54:57;8.27;;;5.93;;
8462;SDS011;4268;52.506;13.462;2023-02-28T07:57:22;5.53;;;4.87;;
8462;SDS011;4268;52.506;13.462;2023-02-28T07:59:48;6.17;;;4.90;;
8462;SDS011;4268;52.506;13.462;2023-02-28T08:02:14;7.97;;;5.33;;
8462;SDS011;4268;52.506;13.462;2023-02-28T08:04:40;6.27;;;5.30;;
8462;SDS011;4268;52.506;13.462;2023-02-28T08:07:06;4.83;;;4.40;;
8462;SDS011;4268;52.506;13.462;2023-02-28T08:09:32;5.07;;;4.57;;
8462;SDS011;4268;52.506;13.462;2023-02-28T08:11:58;5.53;;;4.90;;
8462;SDS011;4268;52.506;13.462;2023-02-28T08:14:24;5.60;;;5.00;;
8462;SDS011;4268;52.506;13.462;2023-02-28T08:16:49;5.47;;;4.97;;
8462;SDS011;4268;52.506;13.462;2023-02-28T08:19:15;6.83;;;4.50;;
8462;SDS011;4268;52.506;13.462;2023-02-28T08:21:40;6.23;;;4.90;;
8462;SDS011;4268;52.506;13.462;2023-02-28T08:24:06;6.33;;;4.80;;
8462;SDS011;4268;52.506;13.462;2023-02-28T08:26:32;6.07;;;5.47;;
8462;SDS011;4268;52.506;13.462;2023-02-28T08:28:57;6.00;;;5.40;;
8462;SDS011;4268;52.506;13.462;2023-02-28T08:31:23;8.73;;;5.93;;
8462;SDS011;4268;52.506;13.462;2023-02-28T08:33:48;6.70;;;5.13;;
8462;SDS011;4268;52.506;13.462;2023-02-28T08:36:16;8.27;;;4.57;;
8462;SDS011;4268;52.506;13.462;2023-02-28T08:38:42;4.73;;;4.17;;
8462;SDS011;4268;52.506;13.462;2023-02-28T08:41:10;4.90;;;4.50;;
8462;SDS011;4268;52.506;13.462;2023-02-28T08:43:36;4.77;;;4.37;;
8462;SDS011;4268;52.506;13.462;2023-02-28T08:46:03;6.93;;;4.50;;
8462;SDS011;4268;52.506;13.462;2023-02-28T08:48:30;4.87;;;4.47;;
8462;SDS011;4268;52.506;13.462;2023-02-28T08:53:23;5.63;;;4.10;;
8462;SDS011;4268;52.506;13.462;2023-02-28T08:55:55;4.30;;;3.90;;
8462;SDS011;4268;52.506;13.462;2023-02-28T08:58:22;5.37;;;3.80;;
8462;SDS011;4268;52.506;13.462;2023-02-28T09:00:47;4.27;;;3.97;;
8462;SDS011;4268;52.506;13.462;2023-02-28T09:03:12;4.43;;;4.03;;
8462;SDS011;4268;52.506;13.462;2023-02-28T09:05:38;6.00;;;5.20;;
8462;SDS011;4268;52.506;13.462;2023-02-28T09:08:04;4.80;;;3.77;;
8462;SDS011;4268;52.506;13.462;2023-02-28T09:10:29;4.67;;;3.57;;
8462;SDS011;4268;52.506;13.462;2023-02-28T09:12:55;4.20;;;3.80;;
8462;SDS011;4268;52.506;13.462;2023-02-28T09:15:20;7.83;;;3.93;;
8462;SDS011;4268;52.506;13.462;2023-02-28T09:17:46;4.73;;;4.30;;
8462;SDS011;4268;52.506;13.462;2023-02-28T09:20:11;6.40;;;3.90;;
8462;SDS011;4268;52.506;13.462;2023-02-28T09:22:37;5.97;;;3.73;;
8462;SDS011;4268;52.506;13.462;2023-02-28T09:25:03;3.63;;;3.33;;
8462;SDS011;4268;52.506;13.462;2023-02-28T09:27:28;3.47;;;3.10;;
8462;SDS011;4268;52.506;13.462;2023-02-28T09:29:54;4.07;;;3.53;;
8462;SDS011;4268;52.506;13.462;2023-02-28T09:32:19;3.67;;;3.37;;
8462;SDS011;4268;52.506;13.462;2023-02-28T09:34:45;3.87;;;3.57;;
8462;SDS011;4268;52.506;13.462;2023-02-28T09:37:10;3.60;;;3.30;;
8462;SDS011;4268;52.506;13.462;2023-02-28T09:39:36;3.70;;;3.40;;
8462;SDS011;4268;52.506;13.462;2023-02-28T09:42:02;5.97;;;4.93;;
8462;SDS011;4268;52.506;13.462;2023-02-28T09:44:32;10.00;;;3.77;;
8462;SDS011;4268;52.506;13.462;2023-02-28T09:49:44;5.53;;;3.60;;
8462;SDS011;4268;52.506;13.462;2023-02-28T09:52:17;3.90;;;3.60;;
8462;SDS011;4268;52.506;13.462;2023-02-28T09:54:46;3.70;;;3.40;;
8462;SDS011;4268;52.506;13.462;2023-02-28T10:00:02;3.20;;;3.00;;
8462;SDS011;4268;52.506;13.462;2023-02-28T10:02:56;3.40;;;3.10;;
8462;SDS011;4268;52.506;13.462;2023-02-28T10:05:50;3.17;;;2.97;;
8462;SDS011;4268;52.506;13.462;2023-02-28T10:08:14;3.50;;;3.20;;
8462;SDS011;4268;52.506;13.462;2023-02-28T10:10:56;3.40;;;3.20;;
8462;SDS011;4268;52.506;13.462;2023-02-28T10:15:53;6.37;;;3.10;;
8462;SDS011;4268;52.506;13.462;2023-02-28T10:19:06;3.93;;;3.30;;
8462;SDS011;4268;52.506;13.462;2023-02-28T10:21:16;3.63;;;3.33;;
8462;SDS011;4268;52.506;13.462;2023-02-28T10:23:45;3.23;;;3.03;;
8462;SDS011;4268;52.506;13.462;2023-02-28T10:26:13;3.50;;;3.20;;
8462;SDS011;4268;52.506;13.462;2023-02-28T10:28:42;4.07;;;3.57;;
8462;SDS011;4268;52.506;13.462;2023-02-28T10:31:10;3.20;;;3.00;;
8462;SDS011;4268;52.506;13.462;2023-02-28T10:33:42;3.33;;;3.03;;
8462;SDS011;4268;52.506;13.462;2023-02-28T10:36:08;3.70;;;3.40;;
8462;SDS011;4268;52.506;13.462;2023-02-28T10:38:43;3.30;;;3.10;;
8462;SDS011;4268;52.506;13.462;2023-02-28T10:41:11;3.70;;;3.40;;
8462;SDS011;4268;52.506;13.462;2023-02-28T10:44:12;5.10;;;3.60;;
8462;SDS011;4268;52.506;13.462;2023-02-28T10:46:48;3.50;;;3.20;;
8462;SDS011;4268;52.506;13.462;2023-02-28T10:49:27;3.77;;;3.47;;
8462;SDS011;4268;52.506;13.462;2023-02-28T10:51:57;3.53;;;3.33;;
8462;SDS011;4268;52.506;13.462;2023-02-28T10:54:32;3.90;;;3.60;;
8462;SDS011;4268;52.506;13.462;2023-02-28T10:57:20;3.93;;;3.53;;
8462;SDS011;4268;52.506;13.462;2023-02-28T10:59:52;5.27;;;3.40;;
8462;SDS011;4268;52.506;13.462;2023-02-28T11:02:34;4.57;;;3.70;;
8462;SDS011;4268;52.506;13.462;2023-02-28T11:05:14;7.57;;;3.97;;
8462;SDS011;4268;52.506;13.462;2023-02-28T11:07:56;4.10;;;3.70;;
8462;SDS011;4268;52.506;13.462;2023-02-28T11:10:29;4.93;;;3.73;;
8462;SDS011;4268;52.506;13.462;2023-02-28T11:12:57;4.57;;;4.13;;
8462;SDS011;4268;52.506;13.462;2023-02-28T11:15:27;4.57;;;3.60;;
8462;SDS011;4268;52.506;13.462;2023-02-28T11:18:01;4.00;;;3.60;;
8462;SDS011;4268;52.506;13.462;2023-02-28T11:20:36;4.10;;;3.80;;
8462;SDS011;4268;52.506;13.462;2023-02-28T11:23:02;4.03;;;3.67;;
8462;SDS011;4268;52.506;13.462;2023-02-28T11:25:30;3.80;;;3.50;;
8462;SDS011;4268;52.506;13.462;2023-02-28T11:27:58;3.80;;;3.50;;
8462;SDS011;4268;52.506;13.462;2023-02-28T11:30:36;4.10;;;3.60;;
8462;SDS011;4268;52.506;13.462;2023-02-28T11:33:20;4.13;;;3.73;;
8462;SDS011;4268;52.506;13.462;2023-02-28T11:35:47;3.77;;;3.47;;
8462;SDS011;4268;52.506;13.462;2023-02-28T11:38:14;4.00;;;3.70;;
8462;SDS011;4268;52.506;13.462;2023-02-28T11:46:27;4.37;;;3.80;;
8462;SDS011;4268;52.506;13.462;2023-02-28T11:51:34;4.30;;;4.00;;
8462;SDS011;4268;52.506;13.462;2023-02-28T11:57:35;4.27;;;3.87;;
8462;SDS011;4268;52.506;13.462;2023-02-28T12:03:15;5.93;;;4.03;;
8462;SDS011;4268;52.506;13.462;2023-02-28T12:08:46;4.67;;;4.20;;
8462;SDS011;4268;52.506;13.462;2023-02-28T12:22:31;4.33;;;3.93;;
8462;SDS011;4268;52.506;13.462;2023-02-28T12:28:02;6.33;;;4.37;;
8462;SDS011;4268;52.506;13.462;2023-02-28T12:30:28;4.00;;;3.60;;
8462;SDS011;4268;52.506;13.462;2023-02-28T12:33:04;5.27;;;4.40;;
8462;SDS011;4268;52.506;13.462;2023-02-28T12:35:41;3.70;;;3.23;;
8462;SDS011;4268;52.506;13.462;2023-02-28T12:38:14;4.63;;;3.77;;
8462;SDS011;4268;52.506;13.462;2023-02-28T12:40:48;4.00;;;3.60;;
8462;SDS011;4268;52.506;13.462;2023-02-28T12:43:31;4.13;;;3.50;;
8462;SDS011;4268;52.506;13.462;2023-02-28T12:46:02;3.80;;;3.40;;
8462;SDS011;4268;52.506;13.462;2023-02-28T12:48:39;3.77;;;3.47;;
8462;SDS011;4268;52.506;13.462;2023-02-28T12:51:11;4.07;;;3.67;;
8462;SDS011;4268;52.506;13.462;2023-02-28T12:53:49;4.00;;;3.60;;
8462;SDS011;4268;52.506;13.462;2023-02-28T12:59:03;3.70;;;3.40;;
8462;SDS011;4268;52.506;13.462;2023-02-28T13:10:48;4.00;;;3.70;;
8462;SDS011;4268;52.506;13.462;2023-02-28T13:13:25;4.30;;;3.90;;
8462;SDS011;4268;52.506;13.462;2023-02-28T13:18:32;4.10;;;3.70;;
8462;SDS011;4268;52.506;13.462;2023-02-28T13:21:08;4.00;;;3.70;;
8462;SDS011;4268;52.506;13.462;2023-02-28T13:34:31;4.80;;;3.77;;
8462;SDS011;4268;52.506;13.462;2023-02-28T13:42:36;5.30;;;3.50;;
8462;SDS011;4268;52.506;13.462;2023-02-28T13:47:52;3.57;;;3.27;;
8462;SDS011;4268;52.506;13.462;2023-02-28T13:50:28;3.93;;;3.50;;
8462;SDS011;4268;52.506;13.462;2023-02-28T13:56:01;6.07;;;3.70;;
8462;SDS011;4268;52.506;13.462;2023-02-28T14:04:36;3.57;;;3.27;;
8462;SDS011;4268;52.506;13.462;2023-02-28T14:07:23;4.43;;;3.67;;
8462;SDS011;4268;52.506;13.462;2023-02-28T14:10:01;3.70;;;3.40;;
8462;SDS011;4268;52.506;13.462;2023-02-28T14:18:27;4.00;;;3.60;;
8462;SDS011;4268;52.506;13.462;2023-02-28T14:20:57;4.53;;;4.10;;
8462;SDS011;4268;52.506;13.462;2023-02-28T14:24:01;4.00;;;3.70;;
8462;SDS011;4268;52.506;13.462;2023-02-28T14:29:36;4.03;;;3.73;;
8462;SDS011;4268;52.506;13.462;2023-02-28T14:35:03;4.37;;;3.90;;
8462;SDS011;4268;52.506;13.462;2023-02-28T14:37:49;4.57;;;4.00;;
8462;SDS011;4268;52.506;13.462;2023-02-28T14:40:16;4.47;;;4.07;;
8462;SDS011;4268;52.506;13.462;2023-02-28T14:42:54;4.40;;;4.00;;
8462;SDS011;4268;52.506;13.462;2023-02-28T14:45:28;4.43;;;4.03;;
8462;SDS011;4268;52.506;13.462;2023-02-28T14:47:55;4.73;;;4.33;;
8462;SDS011;4268;52.506;13.462;2023-02-28T14:50:33;4.53;;;4.13;;
8462;SDS011;4268;52.506;13.462;2023-02-28T14:53:01;5.73;;;4.10;;
8462;SDS011;4268;52.506;13.462;2023-02-28T14:55:31;4.20;;;3.80;;
8462;SDS011;4268;52.506;13.462;2023-02-28T14:58:03;4.17;;;3.87;;
8462;SDS011;4268;52.506;13.462;2023-02-28T15:00:35;4.43;;;4.03;;
8462;SDS011;4268;52.506;13.462;2023-02-28T15:03:18;4.60;;;4.20;;
8462;SDS011;4268;52.506;13.462;2023-02-28T15:06:04;4.40;;;4.10;;
8462;SDS011;4268;52.506;13.462;2023-02-28T15:08:36;4.43;;;4.03;;
8462;SDS011;4268;52.506;13.462;2023-02-28T15:11:11;4.60;;;4.20;;
8462;SDS011;4268;52.506;13.462;2023-02-28T15:13:40;5.27;;;4.10;;
8462;SDS011;4268;52.506;13.462;2023-02-28T15:16:19;6.23;;;5.37;;
8462;SDS011;4268;52.506;13.462;2023-02-28T15:19:04;4.90;;;4.50;;
8462;SDS011;4268;52.506;13.462;2023-02-28T15:21:46;4.60;;;4.20;;
8462;SDS011;4268;52.506;13.462;2023-02-28T15:24:19;4.50;;;4.10;;
8462;SDS011;4268;52.506;13.462;2023-02-28T15:26:57;4.30;;;3.93;;
8462;SDS011;4268;52.506;13.462;2023-02-28T15:29:25;4.40;;;4.00;;
8462;SDS011;4268;52.506;13.462;2023-02-28T15:31:56;5.07;;;4.07;;
8462;SDS011;4268;52.506;13.462;2023-02-28T15:36:52;4.20;;;3.90;;
8462;SDS011;4268;52.506;13.462;2023-02-28T15:39:24;4.80;;;4.23;;
8462;SDS011;4268;52.506;13.462;2023-02-28T15:41:52;6.40;;;4.23;;
8462;SDS011;4268;52.506;13.462;2023-02-28T15:44:34;4.47;;;4.07;;
8462;SDS011;4268;52.506;13.462;2023-02-28T15:47:04;5.57;;;5.07;;
8462;SDS011;4268;52.506;13.462;2023-02-28T15:49:36;4.47;;;4.07;;
8462;SDS011;4268;52.506;13.462;2023-02-28T15:52:33;4.20;;;3.90;;
8462;SDS011;4268;52.506;13.462;2023-02-28T15:55:09;4.73;;;4.33;;
8462;SDS011;4268;52.506;13.462;2023-02-28T15:57:47;6.20;;;5.50;;
8462;SDS011;4268;52.506;13.462;2023-02-28T16:00:18;5.07;;;4.60;;
8462;SDS011;4268;52.506;13.462;2023-02-28T16:02:46;4.97;;;4.37;;
8462;SDS011;4268;52.506;13.462;2023-02-28T16:07:52;4.43;;;4.03;;
8462;SDS011;4268;52.506;13.462;2023-02-28T16:10:20;4.50;;;3.97;;
8462;SDS011;4268;52.506;13.462;2023-02-28T16:12:50;4.57;;;4.17;;
8462;SDS011;4268;52.506;13.462;2023-02-28T16:15:17;4.20;;;3.80;;
8462;SDS011;4268;52.506;13.462;2023-02-28T16:17:45;4.40;;;4.00;;
8462;SDS011;4268;52.506;13.462;2023-02-28T16:20:15;4.57;;;4.10;;
8462;SDS011;4268;52.506;13.462;2023-02-28T16:22:42;4.17;;;3.87;;
8462;SDS011;4268;52.506;13.462;2023-02-28T16:25:12;4.67;;;3.90;;
8462;SDS011;4268;52.506;13.462;2023-02-28T16:27:38;4.20;;;3.90;;
8462;SDS011;4268;52.506;13.462;2023-02-28T16:30:05;4.57;;;4.13;;
8462;SDS011;4268;52.506;13.462;2023-02-28T16:32:32;4.80;;;4.30;;
8462;SDS011;4268;52.506;13.462;2023-02-28T16:35:00;4.63;;;4.23;;
8462;SDS011;4268;52.506;13.462;2023-02-28T16:37:26;4.97;;;3.90;;
8462;SDS011;4268;52.506;13.462;2023-02-28T16:39:52;4.50;;;4.20;;
8462;SDS011;4268;52.506;13.462;2023-02-28T16:42:22;4.43;;;4.03;;
8462;SDS011;4268;52.506;13.462;2023-02-28T16:44:50;4.30;;;4.00;;
8462;SDS011;4268;52.506;13.462;2023-02-28T16:47:16;4.67;;;4.27;;
8462;SDS011;4268;52.506;13.462;2023-02-28T16:49:42;4.73;;;4.33;;
8462;SDS011;4268;52.506;13.462;2023-02-28T16:52:08;4.90;;;4.40;;
8462;SDS011;4268;52.506;13.462;2023-02-28T16:54:34;4.93;;;4.40;;
8462;SDS011;4268;52.506;13.462;2023-02-28T16:57:00;5.33;;;4.27;;
8462;SDS011;4268;52.506;13.462;2023-02-28T16:59:26;4.77;;;4.37;;
8462;SDS011;4268;52.506;13.462;2023-02-28T17:01:54;5.57;;;4.47;;
8462;SDS011;4268;52.506;13.462;2023-02-28T17:04:22;5.17;;;4.60;;
8462;SDS011;4268;52.506;13.462;2023-02-28T17:06:48;5.20;;;4.70;;
8462;SDS011;4268;52.506;13.462;2023-02-28T17:09:18;6.30;;;5.20;;
8462;SDS011;4268;52.506;13.462;2023-02-28T17:11:45;5.53;;;4.50;;
8462;SDS011;4268;52.506;13.462;2023-02-28T17:14:11;5.10;;;4.60;;